Time;durP1;ratioP1;P1;durP2;ratioP2;P2;SDS_P1;SDS_P2;PMS_P1;PMS_P2;Temp;Humidity;BMP_temperature;BMP_pressure;BME280_temperature;BME280_humidity;BME280_pressure;Samples;Min_cycle;Max_cycle;Signal;HPM_P1;HPM_P2
2022/09/27 00:01:02;;;;;;;9.25;3.15;;;;;;;;;;5063421;28;20024;-68
2022/09/27 00:03:28;;;;;;;7.45;2.80;;;;;;;;;;5072082;28;20081;-63
2022/09/27 00:06:34;;;;;;;6.63;2.60;;;;;;;;;;5068283;28;20479;-64
2022/09/27 00:09:00;;;;;;;9.05;3.40;;;;;;;;;;5057454;28;20600;-67
2022/09/27 00:11:29;;;;;;;7.32;3.50;;;;;;;;;;5071265;28;20028;-65
2022/09/27 00:13:57;;;;;;;5.47;3.20;;;;;;;;;;5067776;28;20040;-66
2022/09/27 00:16:26;;;;;;;5.75;2.85;;;;;;;;;;5068338;28;20345;-63
2022/09/27 00:18:52;;;;;;;10.18;3.00;;;;;;;;;;5068981;28;20126;-64
2022/09/27 00:21:19;;;;;;;4.57;3.10;;;;;;;;;;5071227;28;20020;-63
2022/09/27 00:23:44;;;;;;;5.13;3.05;;;;;;;;;;5067979;28;20460;-66
2022/09/27 00:26:12;;;;;;;6.65;2.88;;;;;;;;;;5063047;28;20039;-63
2022/09/27 00:28:39;;;;;;;5.82;2.83;;;;;;;;;;5070451;28;20049;-65
2022/09/27 00:31:17;;;;;;;5.00;2.42;;;;;;;;;;5065239;28;20021;-64
2022/09/27 00:33:43;;;;;;;4.28;2.72;;;;;;;;;;5064536;28;20372;-63
2022/09/27 00:36:09;;;;;;;5.72;2.80;;;;;;;;;;5068766;28;20086;-65
2022/09/27 00:38:35;;;;;;;13.00;3.53;;;;;;;;;;5073079;28;20072;-64
2022/09/27 00:41:01;;;;;;;7.07;2.70;;;;;;;;;;5067149;28;20017;-63
2022/09/27 00:43:52;;;;;;;5.93;2.33;;;;;;;;;;5072854;28;20029;-63
2022/09/27 00:46:41;;;;;;;12.32;3.30;;;;;;;;;;5072172;28;20021;-62
2022/09/27 00:49:19;;;;;;;8.45;3.17;;;;;;;;;;5067373;28;20365;-62
2022/09/27 00:51:50;;;;;;;4.72;3.30;;;;;;;;;;5064753;28;20475;-63
2022/09/27 00:54:18;;;;;;;6.75;4.05;;;;;;;;;;5066029;28;20094;-63
2022/09/27 00:56:46;;;;;;;8.73;3.47;;;;;;;;;;5070334;28;20103;-64
2022/09/27 00:59:23;;;;;;;6.32;3.67;;;;;;;;;;5071211;28;20038;-64
2022/09/27 01:01:49;;;;;;;13.90;3.67;;;;;;;;;;5071654;28;20059;-63
2022/09/27 01:04:21;;;;;;;12.05;3.17;;;;;;;;;;5068932;28;20029;-64
2022/09/27 01:06:47;;;;;;;10.70;3.88;;;;;;;;;;5071783;28;20102;-63
2022/09/27 01:09:13;;;;;;;6.63;3.40;;;;;;;;;;5071988;28;20021;-63
2022/09/27 01:11:50;;;;;;;9.27;3.15;;;;;;;;;;5067968;28;20094;-63
2022/09/27 01:14:41;;;;;;;10.18;3.67;;;;;;;;;;5067040;28;20091;-63
2022/09/27 01:17:36;;;;;;;7.13;3.00;;;;;;;;;;5067976;28;20571;-62
2022/09/27 01:20:33;;;;;;;6.60;3.25;;;;;;;;;;5065704;28;20029;-63
2022/09/27 01:23:17;;;;;;;6.88;4.18;;;;;;;;;;5062374;28;20051;-62
2022/09/27 01:26:10;;;;;;;10.73;4.07;;;;;;;;;;5071251;28;20131;-64
2022/09/27 01:29:10;;;;;;;12.07;4.15;;;;;;;;;;5061488;28;20033;-64
2022/09/27 01:31:51;;;;;;;7.80;3.80;;;;;;;;;;5070023;28;20033;-64
2022/09/27 01:34:31;;;;;;;8.32;4.05;;;;;;;;;;5069889;28;20136;-65
2022/09/27 01:37:11;;;;;;;8.82;3.70;;;;;;;;;;5062569;28;20033;-63
2022/09/27 01:39:55;;;;;;;10.65;3.80;;;;;;;;;;5059522;28;20063;-66
2022/09/27 01:42:45;;;;;;;9.23;3.47;;;;;;;;;;5070689;28;20037;-62
2022/09/27 01:45:23;;;;;;;6.65;3.63;;;;;;;;;;5066995;28;20036;-63
2022/09/27 01:48:21;;;;;;;9.05;4.55;;;;;;;;;;5067674;28;20049;-62
2022/09/27 01:51:05;;;;;;;11.23;4.53;;;;;;;;;;5066835;28;20120;-63
2022/09/27 01:53:35;;;;;;;8.68;4.43;;;;;;;;;;5070486;28;20475;-62
2022/09/27 01:56:46;;;;;;;12.18;4.20;;;;;;;;;;5046844;28;20395;-63
2022/09/27 01:59:28;;;;;;;10.07;3.80;;;;;;;;;;5067222;28;20115;-63
2022/09/27 02:02:10;;;;;;;10.00;3.47;;;;;;;;;;5065445;28;20033;-63
2022/09/27 02:05:00;;;;;;;7.85;3.40;;;;;;;;;;5065734;28;20036;-63
2022/09/27 02:07:39;;;;;;;7.18;3.33;;;;;;;;;;5052767;28;20033;-64
2022/09/27 02:10:16;;;;;;;8.85;3.50;;;;;;;;;;5067081;28;20060;-63
2022/09/27 02:13:23;;;;;;;11.52;3.53;;;;;;;;;;5058426;28;20032;-63
2022/09/27 02:16:15;;;;;;;5.78;3.05;;;;;;;;;;5066347;28;20447;-62
2022/09/27 02:19:15;;;;;;;8.30;2.80;;;;;;;;;;5064335;28;20029;-63
2022/09/27 02:21:54;;;;;;;7.30;2.95;;;;;;;;;;5064630;28;20036;-63
2022/09/27 02:24:24;;;;;;;9.60;3.70;;;;;;;;;;5068177;28;20506;-61
2022/09/27 02:27:03;;;;;;;7.50;2.95;;;;;;;;;;5065095;28;20029;-62
2022/09/27 02:29:42;;;;;;;9.23;3.30;;;;;;;;;;5069230;28;20025;-62
2022/09/27 02:32:08;;;;;;;6.70;3.00;;;;;;;;;;5066057;28;20495;-61
2022/09/27 02:34:37;;;;;;;4.72;2.25;;;;;;;;;;5069540;28;20125;-62
2022/09/27 02:37:03;;;;;;;6.00;2.80;;;;;;;;;;5079387;28;20111;-63
2022/09/27 02:39:29;;;;;;;18.13;5.63;;;;;;;;;;5069317;28;20020;-62
2022/09/27 02:42:04;;;;;;;8.50;3.40;;;;;;;;;;5067945;28;20403;-63
2022/09/27 02:44:30;;;;;;;7.30;3.03;;;;;;;;;;5064464;28;20032;-63
2022/09/27 02:47:05;;;;;;;4.60;2.90;;;;;;;;;;5062579;28;20173;-62
2022/09/27 02:50:05;;;;;;;12.43;3.95;;;;;;;;;;5069722;28;20037;-65
2022/09/27 02:53:08;;;;;;;11.48;2.95;;;;;;;;;;5063821;28;20076;-62
2022/09/27 02:55:51;;;;;;;7.35;2.72;;;;;;;;;;5059516;28;20059;-62
2022/09/27 02:58:41;;;;;;;10.63;3.88;;;;;;;;;;5069602;28;20105;-63
2022/09/27 03:01:46;;;;;;;6.05;2.78;;;;;;;;;;5069559;28;20043;-63
2022/09/27 03:04:54;;;;;;;6.55;2.95;;;;;;;;;;5069942;28;20048;-63
2022/09/27 03:07:21;;;;;;;4.80;2.63;;;;;;;;;;5069039;28;20049;-65
2022/09/27 03:09:50;;;;;;;7.47;2.50;;;;;;;;;;5071263;28;20033;-64
2022/09/27 03:12:21;;;;;;;16.15;4.05;;;;;;;;;;5071652;28;20040;-65
2022/09/27 03:14:48;;;;;;;15.88;4.03;;;;;;;;;;5074584;28;20059;-64
2022/09/27 03:17:37;;;;;;;15.07;3.40;;;;;;;;;;5071241;28;20047;-63
2022/09/27 03:20:21;;;;;;;11.13;3.50;;;;;;;;;;5075151;28;20071;-66
2022/09/27 03:23:07;;;;;;;7.43;2.78;;;;;;;;;;5070943;28;20045;-65
2022/09/27 03:25:33;;;;;;;10.95;3.58;;;;;;;;;;5074999;28;20032;-64
2022/09/27 03:27:59;;;;;;;10.20;3.25;;;;;;;;;;5073576;28;20025;-66
2022/09/27 03:30:25;;;;;;;8.45;3.20;;;;;;;;;;5073482;28;20036;-62
2022/09/27 03:32:51;;;;;;;8.52;3.50;;;;;;;;;;5073639;28;20025;-66
2022/09/27 03:35:17;;;;;;;12.27;3.50;;;;;;;;;;5074773;28;20127;-67
2022/09/27 03:37:43;;;;;;;6.97;3.22;;;;;;;;;;5073733;28;20047;-66
2022/09/27 03:40:10;;;;;;;10.20;3.38;;;;;;;;;;5073439;28;20126;-64
2022/09/27 03:42:37;;;;;;;5.50;2.50;;;;;;;;;;5073168;28;20490;-65
2022/09/27 03:45:04;;;;;;;9.95;2.90;;;;;;;;;;5073002;28;20123;-68
2022/09/27 03:47:30;;;;;;;10.20;3.15;;;;;;;;;;5073668;28;20021;-65
2022/09/27 03:49:56;;;;;;;12.98;3.60;;;;;;;;;;5071679;28;20082;-63
2022/09/27 03:52:21;;;;;;;15.40;3.10;;;;;;;;;;5072244;28;20383;-62
2022/09/27 03:54:48;;;;;;;9.98;2.47;;;;;;;;;;5073014;28;20200;-62
2022/09/27 03:57:14;;;;;;;9.27;2.33;;;;;;;;;;5073236;28;20440;-63
2022/09/27 03:59:40;;;;;;;4.97;2.28;;;;;;;;;;5067852;28;20028;-63
2022/09/27 04:02:26;;;;;;;8.45;2.15;;;;;;;;;;5063358;28;20028;-66
2022/09/27 04:05:13;;;;;;;10.25;3.00;;;;;;;;;;5061036;28;20094;-64
2022/09/27 04:07:45;;;;;;;15.65;3.80;;;;;;;;;;5071673;28;20036;-66
2022/09/27 04:10:14;;;;;;;9.40;3.20;;;;;;;;;;5072072;28;20043;-70
2022/09/27 04:12:40;;;;;;;8.95;3.05;;;;;;;;;;5071627;28;20035;-64
2022/09/27 04:15:07;;;;;;;6.53;3.33;;;;;;;;;;5089231;28;20063;-70
2022/09/27 04:17:57;;;;;;;9.30;4.00;;;;;;;;;;5055940;28;20052;-65
2022/09/27 04:20:29;;;;;;;20.50;4.68;;;;;;;;;;5068078;28;20501;-67
2022/09/27 04:22:56;;;;;;;15.27;6.00;;;;;;;;;;5076655;28;20483;-63
2022/09/27 04:25:22;;;;;;;9.75;4.50;;;;;;;;;;5085813;28;20036;-63
2022/09/27 04:27:54;;;;;;;5.63;2.67;;;;;;;;;;5063808;28;20094;-62
2022/09/27 04:30:21;;;;;;;12.75;3.58;;;;;;;;;;5081664;28;20060;-65
2022/09/27 04:33:10;;;;;;;10.60;2.97;;;;;;;;;;5069135;28;20067;-62
2022/09/27 04:38:48;;;;;;;;;;;;;;;;;;5071024;28;20142;-66
2022/09/27 04:41:20;;;;;;;15.98;3.97;;;;;;;;;;5070853;28;19956;-66
2022/09/27 04:43:47;;;;;;;11.77;3.03;;;;;;;;;;5070966;28;20032;-66
2022/09/27 04:46:13;;;;;;;10.40;3.15;;;;;;;;;;5070378;28;20025;-69
2022/09/27 04:48:40;;;;;;;4.78;2.90;;;;;;;;;;5070765;28;20044;-65
2022/09/27 04:51:06;;;;;;;10.25;3.60;;;;;;;;;;5071107;28;20039;-65
2022/09/27 04:53:32;;;;;;;9.05;3.40;;;;;;;;;;5070984;28;20036;-69
2022/09/27 04:56:01;;;;;;;8.57;3.00;;;;;;;;;;5054081;28;20496;-68
2022/09/27 04:58:28;;;;;;;9.63;3.22;;;;;;;;;;5081477;28;20059;-68
2022/09/27 05:00:57;;;;;;;12.45;3.80;;;;;;;;;;5089972;28;20028;-67
2022/09/27 05:03:41;;;;;;;10.25;4.32;;;;;;;;;;5090997;28;20075;-67
2022/09/27 05:06:12;;;;;;;15.25;4.25;;;;;;;;;;5089282;28;20028;-64
2022/09/27 05:08:38;;;;;;;11.63;3.97;;;;;;;;;;5090031;28;20028;-67
2022/09/27 05:11:16;;;;;;;17.27;4.60;;;;;;;;;;5091348;28;20432;-66
2022/09/27 05:14:03;;;;;;;15.00;4.25;;;;;;;;;;5090374;28;20043;-67
2022/09/27 05:16:33;;;;;;;9.50;3.50;;;;;;;;;;5089422;28;20063;-64
2022/09/27 05:19:17;;;;;;;12.18;3.53;;;;;;;;;;5091717;28;20040;-65
2022/09/27 05:21:55;;;;;;;14.15;3.70;;;;;;;;;;5084447;28;20128;-66
2022/09/27 05:24:26;;;;;;;17.15;4.38;;;;;;;;;;5070174;28;20048;-64
2022/09/27 05:26:53;;;;;;;11.65;4.13;;;;;;;;;;5069922;28;20031;-65
2022/09/27 05:29:19;;;;;;;6.00;3.47;;;;;;;;;;5071139;28;20471;-66
2022/09/27 05:32:00;;;;;;;7.28;2.97;;;;;;;;;;5069918;28;20032;-68
2022/09/27 05:34:27;;;;;;;16.52;4.05;;;;;;;;;;5053519;28;20135;-64
2022/09/27 05:36:59;;;;;;;15.50;5.03;;;;;;;;;;5070361;28;20064;-64
2022/09/27 05:39:25;;;;;;;8.38;3.45;;;;;;;;;;5070197;28;20280;-66
2022/09/27 05:41:54;;;;;;;9.25;3.88;;;;;;;;;;5069734;28;20028;-64
2022/09/27 05:44:20;;;;;;;9.25;3.30;;;;;;;;;;5071042;28;20047;-64
2022/09/27 05:47:03;;;;;;;7.65;3.30;;;;;;;;;;5071238;28;20025;-65
2022/09/27 05:49:32;;;;;;;10.57;3.60;;;;;;;;;;5069981;28;20086;-65
2022/09/27 05:52:00;;;;;;;15.30;4.68;;;;;;;;;;5070045;28;20037;-65
2022/09/27 05:54:28;;;;;;;14.18;5.47;;;;;;;;;;5069968;28;20028;-66
2022/09/27 05:56:57;;;;;;;12.02;3.63;;;;;;;;;;5053434;28;20048;-66
2022/09/27 05:59:40;;;;;;;9.60;4.18;;;;;;;;;;5070042;28;20099;-66
2022/09/27 06:02:26;;;;;;;9.98;3.40;;;;;;;;;;5070616;28;20044;-65
2022/09/27 06:05:08;;;;;;;7.93;3.20;;;;;;;;;;5070639;28;20048;-64
2022/09/27 06:07:40;;;;;;;7.95;3.75;;;;;;;;;;5073506;28;20165;-64
2022/09/27 06:10:12;;;;;;;15.10;3.80;;;;;;;;;;5088678;28;20127;-65
2022/09/27 06:12:38;;;;;;;10.57;3.92;;;;;;;;;;5089441;28;20081;-65
2022/09/27 06:15:13;;;;;;;14.77;4.88;;;;;;;;;;5087765;28;20484;-64
2022/09/27 06:17:42;;;;;;;10.88;4.95;;;;;;;;;;5088849;28;20040;-64
2022/09/27 06:20:13;;;;;;;17.38;6.60;;;;;;;;;;5088295;28;20059;-64
2022/09/27 06:22:40;;;;;;;21.85;5.88;;;;;;;;;;5088172;28;20036;-64
2022/09/27 06:25:08;;;;;;;9.18;5.20;;;;;;;;;;5088948;28;20024;-65
2022/09/27 06:27:48;;;;;;;17.80;5.80;;;;;;;;;;5088598;28;20040;-63
2022/09/27 06:30:22;;;;;;;9.40;3.72;;;;;;;;;;5088060;28;20032;-69
2022/09/27 06:33:02;;;;;;;11.10;3.63;;;;;;;;;;5088215;28;20036;-68
2022/09/27 06:35:39;;;;;;;13.30;3.83;;;;;;;;;;5088799;28;20432;-69
2022/09/27 06:38:09;;;;;;;6.72;3.45;;;;;;;;;;5076148;28;20044;-69
2022/09/27 06:40:38;;;;;;;11.90;3.33;;;;;;;;;;5070302;28;20032;-70
2022/09/27 06:43:34;;;;;;;8.35;3.90;;;;;;;;;;5050850;28;20056;-68
2022/09/27 06:46:32;;;;;;;12.00;3.00;;;;;;;;;;5042288;28;20087;-68
2022/09/27 06:49:10;;;;;;;6.90;3.22;;;;;;;;;;5057132;28;20055;-70
2022/09/27 06:51:38;;;;;;;8.20;3.25;;;;;;;;;;5065130;28;20036;-69
2022/09/27 06:54:04;;;;;;;7.70;3.45;;;;;;;;;;5076734;28;20141;-70
2022/09/27 06:56:31;;;;;;;8.80;2.90;;;;;;;;;;5070949;28;20041;-66
2022/09/27 07:01:42;;;;;;;5.75;3.20;;;;;;;;;;5056761;28;20048;-70
2022/09/27 07:04:26;;;;;;;11.75;3.00;;;;;;;;;;5065828;28;20043;-72
2022/09/27 07:07:05;;;;;;;6.18;2.58;;;;;;;;;;5076158;28;20100;-69
2022/09/27 07:09:37;;;;;;;6.57;3.08;;;;;;;;;;5059689;28;20387;-75
2022/09/27 07:12:05;;;;;;;23.45;4.95;;;;;;;;;;5059511;28;20059;-73
2022/09/27 07:14:32;;;;;;;9.57;2.83;;;;;;;;;;5069302;28;20040;-72
2022/09/27 07:16:59;;;;;;;15.48;3.90;;;;;;;;;;5078722;28;20131;-72
2022/09/27 07:19:29;;;;;;;6.57;2.45;;;;;;;;;;5057575;28;20565;-71
2022/09/27 07:21:55;;;;;;;7.22;2.60;;;;;;;;;;5056884;28;20133;-71
2022/09/27 07:24:22;;;;;;;8.50;2.35;;;;;;;;;;5056813;28;20397;-70
2022/09/27 07:26:48;;;;;;;8.80;3.58;;;;;;;;;;5057205;28;20059;-68
2022/09/27 07:29:17;;;;;;;10.57;3.17;;;;;;;;;;5045670;28;20107;-69
2022/09/27 07:31:43;;;;;;;17.38;4.00;;;;;;;;;;5072584;28;20029;-69
2022/09/27 07:34:10;;;;;;;8.05;3.33;;;;;;;;;;5059563;28;20149;-70
2022/09/27 07:36:36;;;;;;;9.43;2.50;;;;;;;;;;5058069;28;20040;-70
2022/09/27 07:39:02;;;;;;;4.25;2.90;;;;;;;;;;5063595;28;20025;-67
2022/09/27 07:41:31;;;;;;;5.70;2.45;;;;;;;;;;5060284;28;20036;-69
2022/09/27 07:43:56;;;;;;;11.88;2.90;;;;;;;;;;5073877;28;20035;-69
2022/09/27 07:46:24;;;;;;;4.18;2.00;;;;;;;;;;5065631;28;20120;-69
2022/09/27 07:48:55;;;;;;;7.43;2.83;;;;;;;;;;5093344;28;20375;-68
2022/09/27 07:51:40;;;;;;;6.10;2.38;;;;;;;;;;5072221;28;20106;-68
2022/09/27 07:54:38;;;;;;;6.05;2.30;;;;;;;;;;5049717;28;20127;-67
2022/09/27 07:57:26;;;;;;;5.25;2.00;;;;;;;;;;5076585;28;20360;-68
2022/09/27 07:59:54;;;;;;;5.68;1.77;;;;;;;;;;5068823;28;20032;-69
2022/09/27 08:02:23;;;;;;;2.90;1.40;;;;;;;;;;5072888;28;20119;-68
2022/09/27 08:04:50;;;;;;;4.90;1.48;;;;;;;;;;5072684;28;20032;-69
2022/09/27 08:07:16;;;;;;;5.63;1.52;;;;;;;;;;5072194;28;20055;-66
2022/09/27 08:09:45;;;;;;;3.00;1.40;;;;;;;;;;5072423;28;20036;-66
2022/09/27 08:12:12;;;;;;;2.50;1.30;;;;;;;;;;5073050;28;20119;-67
2022/09/27 08:14:38;;;;;;;8.35;1.58;;;;;;;;;;5073100;28;20115;-66
2022/09/27 08:17:04;;;;;;;4.53;1.73;;;;;;;;;;5072744;28;20033;-67
2022/09/27 08:19:50;;;;;;;7.55;1.48;;;;;;;;;;5069197;28;20048;-67
2022/09/27 08:22:42;;;;;;;2.35;1.30;;;;;;;;;;5070534;28;20517;-67
2022/09/27 08:25:23;;;;;;;4.63;1.63;;;;;;;;;;5071982;28;20510;-66
2022/09/27 08:28:16;;;;;;;4.85;1.73;;;;;;;;;;5072124;28;20403;-66
2022/09/27 08:30:52;;;;;;;8.05;1.90;;;;;;;;;;5072012;28;20036;-68
2022/09/27 08:33:18;;;;;;;3.25;1.60;;;;;;;;;;5068529;28;20064;-68
2022/09/27 08:35:44;;;;;;;4.95;1.73;;;;;;;;;;5052100;28;20029;-67
2022/09/27 08:38:10;;;;;;;5.90;1.50;;;;;;;;;;5052280;28;20044;-67
2022/09/27 08:40:57;;;;;;;5.22;1.60;;;;;;;;;;5052247;28;20021;-67
2022/09/27 08:43:56;;;;;;;4.57;1.33;;;;;;;;;;5051887;28;20487;-67
2022/09/27 08:46:54;;;;;;;10.35;1.95;;;;;;;;;;5063934;28;20040;-66
2022/09/27 08:49:28;;;;;;;4.82;1.30;;;;;;;;;;5072816;28;20029;-68
2022/09/27 08:51:57;;;;;;;8.25;2.28;;;;;;;;;;5071180;28;20032;-67
2022/09/27 08:54:28;;;;;;;6.45;2.03;;;;;;;;;;5071469;28;20383;-69
2022/09/27 08:57:03;;;;;;;9.18;1.83;;;;;;;;;;5072747;28;20037;-67
2022/09/27 08:59:54;;;;;;;10.02;2.25;;;;;;;;;;5070808;28;20443;-68
2022/09/27 09:02:26;;;;;;;5.88;3.72;;;;;;;;;;5068418;28;20405;-69
2022/09/27 09:05:08;;;;;;;15.10;2.53;;;;;;;;;;5067797;28;20163;-69
2022/09/27 09:07:55;;;;;;;4.90;1.80;;;;;;;;;;5065928;28;20493;-66
2022/09/27 09:13:39;;;;;;;3.45;1.95;;;;;;;;;;5071595;28;20050;-71
2022/09/27 09:16:32;;;;;;;7.00;2.05;;;;;;;;;;5072735;28;20029;-71
2022/09/27 09:19:21;;;;;;;11.20;2.35;;;;;;;;;;5071491;28;20086;-70
2022/09/27 09:22:20;;;;;;;4.70;1.90;;;;;;;;;;5066816;28;20064;-70
2022/09/27 09:24:49;;;;;;;9.48;2.20;;;;;;;;;;5067526;28;20040;-67
2022/09/27 09:27:29;;;;;;;11.70;3.05;;;;;;;;;;5051460;28;20044;-69
2022/09/27 09:30:37;;;;;;;3.30;1.60;;;;;;;;;;5034578;28;20032;-68
2022/09/27 09:33:12;;;;;;;9.48;2.25;;;;;;;;;;5060014;28;20487;-69
2022/09/27 09:35:44;;;;;;;7.55;1.80;;;;;;;;;;5066210;28;20056;-68
2022/09/27 09:38:41;;;;;;;2.83;1.50;;;;;;;;;;5042719;28;20091;-69
2022/09/27 09:41:17;;;;;;;9.15;2.70;;;;;;;;;;5057143;28;20071;-68
2022/09/27 09:44:09;;;;;;;6.57;2.40;;;;;;;;;;5072221;28;20475;-67
2022/09/27 09:46:40;;;;;;;8.05;2.47;;;;;;;;;;5070343;28;20535;-69
2022/09/27 09:49:34;;;;;;;8.38;2.10;;;;;;;;;;5069934;28;20028;-68
2022/09/27 09:52:10;;;;;;;6.22;2.20;;;;;;;;;;5069436;28;20257;-67
2022/09/27 09:54:40;;;;;;;5.45;1.77;;;;;;;;;;5070506;28;20033;-66
2022/09/27 09:57:09;;;;;;;3.30;1.50;;;;;;;;;;5070467;28;20120;-66
2022/09/27 09:59:42;;;;;;;5.32;2.15;;;;;;;;;;5070168;28;20035;-66
2022/09/27 10:02:30;;;;;;;6.18;1.77;;;;;;;;;;5050051;28;20033;-67
2022/09/27 10:05:04;;;;;;;6.18;2.22;;;;;;;;;;5050528;28;20059;-66
2022/09/27 10:07:32;;;;;;;4.80;2.65;;;;;;;;;;5050533;28;20056;-66
2022/09/27 10:10:01;;;;;;;9.52;3.33;;;;;;;;;;5055318;28;20020;-67
2022/09/27 10:12:50;;;;;;;7.47;2.08;;;;;;;;;;5070075;28;20059;-68
2022/09/27 10:15:23;;;;;;;5.20;2.85;;;;;;;;;;5069281;28;20037;-68
2022/09/27 10:17:52;;;;;;;13.52;2.47;;;;;;;;;;5071598;28;20028;-67
2022/09/27 10:20:27;;;;;;;4.70;2.10;;;;;;;;;;5072156;28;20028;-67
2022/09/27 10:22:59;;;;;;;5.70;2.20;;;;;;;;;;5069902;28;20106;-68
2022/09/27 10:25:55;;;;;;;5.13;2.15;;;;;;;;;;5068521;28;20123;-66
2022/09/27 10:28:49;;;;;;;4.60;2.00;;;;;;;;;;5065405;28;20048;-68
2022/09/27 10:31:21;;;;;;;;;;;;;;;;;;5065325;28;20033;-67
2022/09/27 10:34:01;;;;;;;5.88;1.77;;;;;;;;;;5070014;28;19959;-67
2022/09/27 10:36:35;;;;;;;3.95;1.75;;;;;;;;;;5070638;28;20064;-68
2022/09/27 10:39:05;;;;;;;5.32;1.80;;;;;;;;;;5075202;28;20078;-68
2022/09/27 10:41:42;;;;;;;4.93;1.70;;;;;;;;;;5072984;28;20037;-67
2022/09/27 10:44:25;;;;;;;4.80;2.00;;;;;;;;;;5073822;28;20039;-66
2022/09/27 10:47:10;;;;;;;8.75;2.03;;;;;;;;;;5075194;28;20040;-68
2022/09/27 10:50:14;;;;;;;2.85;1.70;;;;;;;;;;5067186;28;20083;-68
2022/09/27 10:53:19;;;;;;;5.32;2.15;;;;;;;;;;5070285;28;20040;-67
2022/09/27 10:55:55;;;;;;;6.57;2.10;;;;;;;;;;5069191;28;20041;-68
2022/09/27 10:58:27;;;;;;;3.53;1.48;;;;;;;;;;5070024;28;20039;-68
2022/09/27 11:01:02;;;;;;;7.68;2.05;;;;;;;;;;5069905;28;20403;-68
2022/09/27 11:03:31;;;;;;;4.47;2.33;;;;;;;;;;5069848;28;20044;-68
2022/09/27 11:05:58;;;;;;;5.28;2.00;;;;;;;;;;5069982;28;20483;-67
2022/09/27 11:08:31;;;;;;;5.85;2.10;;;;;;;;;;5072051;28;20062;-67
2022/09/27 11:11:12;;;;;;;7.28;1.90;;;;;;;;;;5070286;28;20028;-67
2022/09/27 11:13:39;;;;;;;7.47;2.10;;;;;;;;;;5070353;28;20487;-67
2022/09/27 11:16:33;;;;;;;5.35;1.98;;;;;;;;;;5070239;28;20036;-67
2022/09/27 11:19:32;;;;;;;6.28;2.22;;;;;;;;;;5071171;28;20029;-67
2022/09/27 11:22:36;;;;;;;6.80;1.60;;;;;;;;;;5069819;28;20024;-69
2022/09/27 11:25:16;;;;;;;5.07;1.90;;;;;;;;;;5062195;28;20496;-70
2022/09/27 11:28:20;;;;;;;8.95;2.63;;;;;;;;;;5067600;28;20041;-69
2022/09/27 11:30:51;;;;;;;4.07;1.70;;;;;;;;;;5071139;28;20105;-68
2022/09/27 11:33:53;;;;;;;11.98;2.08;;;;;;;;;;5065081;28;20811;-69
2022/09/27 11:36:48;;;;;;;4.93;2.33;;;;;;;;;;5063596;28;20472;-70
2022/09/27 11:39:16;;;;;;;5.35;2.08;;;;;;;;;;5073446;28;20388;-69
2022/09/27 11:42:05;;;;;;;4.97;2.00;;;;;;;;;;5073730;28;20111;-69
2022/09/27 11:44:42;;;;;;;6.80;2.58;;;;;;;;;;5070666;28;20040;-69
2022/09/27 11:47:19;;;;;;;7.05;2.58;;;;;;;;;;5056752;28;20523;-70
2022/09/27 11:49:48;;;;;;;9.07;2.22;;;;;;;;;;5058445;28;20067;-67
2022/09/27 11:52:26;;;;;;;5.40;2.38;;;;;;;;;;5072611;28;20029;-70
2022/09/27 11:55:00;;;;;;;9.90;2.60;;;;;;;;;;5066689;28;20036;-67
2022/09/27 11:57:33;;;;;;;13.48;2.67;;;;;;;;;;5070318;28;20032;-68
2022/09/27 12:00:20;;;;;;;6.82;1.85;;;;;;;;;;5070240;28;20056;-69
2022/09/27 12:03:37;;;;;;;4.13;1.90;;;;;;;;;;5068902;28;20040;-71
2022/09/27 12:06:11;;;;;;;6.32;1.95;;;;;;;;;;5057522;28;20060;-71
2022/09/27 12:08:58;;;;;;;6.15;2.30;;;;;;;;;;5069089;28;20396;-70
2022/09/27 12:11:27;;;;;;;4.07;2.05;;;;;;;;;;5053564;28;20033;-69
2022/09/27 12:14:00;;;;;;;7.03;1.90;;;;;;;;;;5054743;28;20047;-70
2022/09/27 12:16:29;;;;;;;4.60;1.95;;;;;;;;;;5069721;28;20032;-67
2022/09/27 12:18:56;;;;;;;6.22;2.20;;;;;;;;;;5068955;28;20032;-68
2022/09/27 12:21:35;;;;;;;7.93;2.10;;;;;;;;;;5065810;28;20039;-68
2022/09/27 12:24:02;;;;;;;5.75;1.90;;;;;;;;;;5072254;28;20078;-72
2022/09/27 12:26:44;;;;;;;7.25;2.22;;;;;;;;;;5069036;28;20024;-70
2022/09/27 12:29:35;;;;;;;6.15;2.40;;;;;;;;;;5059370;28;20033;-72
2022/09/27 12:32:09;;;;;;;5.00;2.22;;;;;;;;;;5050625;28;20060;-71
2022/09/27 12:34:49;;;;;;;5.22;2.08;;;;;;;;;;5051438;28;20051;-71
2022/09/27 12:37:21;;;;;;;7.45;2.25;;;;;;;;;;5053232;28;20567;-73
2022/09/27 12:39:50;;;;;;;5.93;3.80;;;;;;;;;;5053074;28;20082;-72
2022/09/27 12:42:27;;;;;;;10.32;2.30;;;;;;;;;;5053082;28;20039;-71
2022/09/27 12:44:58;;;;;;;7.55;1.80;;;;;;;;;;5052630;28;20032;-73
2022/09/27 12:47:24;;;;;;;3.70;1.55;;;;;;;;;;5052827;28;20106;-71
2022/09/27 12:50:33;;;;;;;6.43;1.90;;;;;;;;;;5035100;28;20029;-74
2022/09/27 12:53:11;;;;;;;6.53;1.73;;;;;;;;;;5052535;28;20044;-72
2022/09/27 12:55:58;;;;;;;3.63;2.10;;;;;;;;;;5052212;28;20033;-73
2022/09/27 12:58:42;;;;;;;4.55;1.83;;;;;;;;;;5053309;28;20033;-73
2022/09/27 13:01:48;;;;;;;6.38;2.03;;;;;;;;;;5052031;28;20487;-72
2022/09/27 13:04:20;;;;;;;3.65;1.80;;;;;;;;;;5051997;28;20037;-72
2022/09/27 13:06:58;;;;;;;2.92;1.70;;;;;;;;;;5064343;28;20105;-72
2022/09/27 13:09:56;;;;;;;2.92;1.80;;;;;;;;;;5071913;28;20032;-72
2022/09/27 13:12:26;;;;;;;3.95;1.50;;;;;;;;;;5069774;28;20454;-71
2022/09/27 13:15:16;;;;;;;3.17;1.70;;;;;;;;;;5067703;28;20060;-72
2022/09/27 13:17:43;;;;;;;5.20;2.20;;;;;;;;;;5038740;28;20064;-71
2022/09/27 13:20:34;;;;;;;3.15;1.75;;;;;;;;;;5069298;28;20104;-71
2022/09/27 13:23:34;;;;;;;4.47;1.75;;;;;;;;;;5066059;28;20045;-71
2022/09/27 13:26:19;;;;;;;5.13;2.47;;;;;;;;;;5071274;28;20051;-72
2022/09/27 13:28:49;;;;;;;10.43;2.83;;;;;;;;;;5072025;28;20063;-74
2022/09/27 13:31:53;;;;;;;4.60;1.60;;;;;;;;;;5070587;28;20043;-70
2022/09/27 13:34:52;;;;;;;3.25;1.50;;;;;;;;;;5067436;28;20563;-69
2022/09/27 13:37:44;;;;;;;5.97;1.95;;;;;;;;;;5071943;28;20028;-72
2022/09/27 13:40:29;;;;;;;7.22;2.47;;;;;;;;;;5071670;28;20066;-71
2022/09/27 13:43:16;;;;;;;6.38;1.83;;;;;;;;;;5055822;28;20086;-71
2022/09/27 13:45:54;;;;;;;3.35;1.60;;;;;;;;;;5058175;28;20049;-72
2022/09/27 13:48:53;;;;;;;9.95;2.22;;;;;;;;;;5061463;28;20115;-72
2022/09/27 13:51:46;;;;;;;10.43;2.00;;;;;;;;;;5058363;28;20068;-74
2022/09/27 13:54:50;;;;;;;2.35;1.52;;;;;;;;;;5061004;28;20040;-70
2022/09/27 13:57:44;;;;;;;4.45;2.17;;;;;;;;;;5069649;28;20029;-70
2022/09/27 14:00:23;;;;;;;6.32;1.67;;;;;;;;;;5070987;28;20556;-68
2022/09/27 14:03:05;;;;;;;5.07;1.63;;;;;;;;;;5071523;28;20040;-69
2022/09/27 14:05:45;;;;;;;7.60;1.60;;;;;;;;;;5054696;28;20068;-68
2022/09/27 14:08:23;;;;;;;2.72;1.95;;;;;;;;;;5072242;28;20044;-68
2022/09/27 14:10:55;;;;;;;4.53;1.90;;;;;;;;;;5071367;28;20127;-69
2022/09/27 14:13:24;;;;;;;10.98;1.90;;;;;;;;;;5067429;28;20057;-72
2022/09/27 14:16:03;;;;;;;4.88;2.28;;;;;;;;;;5058567;28;20033;-69
2022/09/27 14:18:32;;;;;;;7.15;1.77;;;;;;;;;;5061151;28;20032;-69
2022/09/27 14:21:31;;;;;;;6.80;3.80;;;;;;;;;;5058957;28;20025;-70
2022/09/27 14:24:44;;;;;;;6.55;2.90;;;;;;;;;;5053471;28;20136;-72
2022/09/27 14:27:27;;;;;;;5.15;2.00;;;;;;;;;;5052098;28;20458;-68
2022/09/27 14:30:09;;;;;;;;;;;;;;;;;;5051311;28;20037;-69
2022/09/27 14:32:54;;;;;;;3.42;1.65;;;;;;;;;;5057495;28;19916;-68
2022/09/27 14:38:20;;;;;;;7.82;1.25;;;;;;;;;;5059059;28;20081;-67
2022/09/27 14:40:52;;;;;;;7.53;1.13;;;;;;;;;;5075730;28;20082;-70
2022/09/27 14:43:20;;;;;;;10.43;3.97;;;;;;;;;;5062346;28;20590;-69
2022/09/27 14:45:50;;;;;;;10.38;3.00;;;;;;;;;;5061909;28;20090;-69
2022/09/27 14:48:18;;;;;;;8.13;3.60;;;;;;;;;;5056828;28;20124;-69
2022/09/27 14:51:01;;;;;;;5.75;2.17;;;;;;;;;;5061519;28;20024;-70
2022/09/27 14:53:31;;;;;;;;;;;;;;;;;;5063363;28;20025;-71
2022/09/27 14:55:59;;;;;;;4.70;0.80;;;;;;;;;;5061221;28;19920;-70
2022/09/27 14:58:25;;;;;;;2.55;1.10;;;;;;;;;;5060304;28;20108;-70
2022/09/27 15:00:53;;;;;;;2.83;1.02;;;;;;;;;;5060486;28;20475;-74
2022/09/27 15:03:30;;;;;;;2.38;0.90;;;;;;;;;;5062935;28;20459;-70
2022/09/27 15:05:58;;;;;;;3.78;1.10;;;;;;;;;;5060016;28;20028;-71
2022/09/27 15:08:34;;;;;;;4.70;1.15;;;;;;;;;;5060694;28;20032;-69
2022/09/27 15:11:04;;;;;;;4.97;1.27;;;;;;;;;;5064586;28;20490;-70
2022/09/27 15:13:32;;;;;;;2.63;1.00;;;;;;;;;;5066722;28;20032;-67
2022/09/27 15:15:58;;;;;;;1.88;0.80;;;;;;;;;;5065908;28;20188;-67
2022/09/27 15:18:49;;;;;;;1.80;0.90;;;;;;;;;;5063781;28;20070;-69
2022/09/27 15:21:32;;;;;;;1.90;0.77;;;;;;;;;;5066331;28;20021;-69
2022/09/27 15:24:01;;;;;;;3.40;0.73;;;;;;;;;;5061403;28;20430;-68
2022/09/27 15:26:45;;;;;;;2.17;0.80;;;;;;;;;;5061606;28;20434;-69
2022/09/27 15:29:22;;;;;;;1.67;0.80;;;;;;;;;;5066278;28;20064;-70
2022/09/27 15:32:07;;;;;;;2.10;0.85;;;;;;;;;;5065957;28;20035;-68
2022/09/27 15:34:34;;;;;;;2.67;0.90;;;;;;;;;;5074380;28;20037;-70
2022/09/27 15:37:05;;;;;;;4.88;1.58;;;;;;;;;;5072132;28;20063;-68
2022/09/27 15:39:40;;;;;;;4.07;1.20;;;;;;;;;;5073861;28;20104;-70
2022/09/27 15:42:16;;;;;;;5.00;1.13;;;;;;;;;;5071961;28;20507;-68
2022/09/27 15:44:42;;;;;;;2.35;0.90;;;;;;;;;;5072421;28;20436;-67
2022/09/27 15:47:41;;;;;;;4.97;1.10;;;;;;;;;;5073765;28;20359;-70
2022/09/27 15:50:13;;;;;;;3.72;1.02;;;;;;;;;;5073144;28;20433;-69
2022/09/27 15:52:46;;;;;;;6.80;1.50;;;;;;;;;;5072132;28;20060;-69